sensor_id;sensor_type;location;lat;lon;timestamp;P1;durP1;ratioP1;P2;durP2;ratioP2
11496;SDS011;5805;51.542;7.230;2023-08-24T00:01:08;5.45;;;3.97;;
11496;SDS011;5805;51.542;7.230;2023-08-24T00:03:35;6.85;;;3.53;;
11496;SDS011;5805;51.542;7.230;2023-08-24T00:06:00;6.95;;;3.47;;
11496;SDS011;5805;51.542;7.230;2023-08-24T00:08:27;5.60;;;3.67;;
11496;SDS011;5805;51.542;7.230;2023-08-24T00:10:53;3.53;;;3.20;;
11496;SDS011;5805;51.542;7.230;2023-08-24T00:13:19;4.10;;;3.70;;
11496;SDS011;5805;51.542;7.230;2023-08-24T00:15:44;5.00;;;3.13;;
11496;SDS011;5805;51.542;7.230;2023-08-24T00:18:10;9.10;;;3.88;;
11496;SDS011;5805;51.542;7.230;2023-08-24T00:20:36;9.32;;;3.42;;
11496;SDS011;5805;51.542;7.230;2023-08-24T00:23:02;5.82;;;3.90;;
11496;SDS011;5805;51.542;7.230;2023-08-24T00:25:29;4.70;;;3.85;;
11496;SDS011;5805;51.542;7.230;2023-08-24T00:27:55;6.00;;;4.18;;
11496;SDS011;5805;51.542;7.230;2023-08-24T00:30:23;4.60;;;3.70;;
11496;SDS011;5805;51.542;7.230;2023-08-24T00:32:49;4.05;;;3.50;;
11496;SDS011;5805;51.542;7.230;2023-08-24T00:35:15;6.28;;;3.35;;
11496;SDS011;5805;51.542;7.230;2023-08-24T00:37:40;6.22;;;3.60;;
11496;SDS011;5805;51.542;7.230;2023-08-24T00:40:07;5.25;;;3.33;;
11496;SDS011;5805;51.542;7.230;2023-08-24T00:42:36;4.80;;;3.78;;
11496;SDS011;5805;51.542;7.230;2023-08-24T00:45:02;5.75;;;4.03;;
11496;SDS011;5805;51.542;7.230;2023-08-24T00:47:28;4.25;;;3.85;;
11496;SDS011;5805;51.542;7.230;2023-08-24T00:49:54;10.95;;;3.70;;
11496;SDS011;5805;51.542;7.230;2023-08-24T00:52:20;4.78;;;3.88;;
11496;SDS011;5805;51.542;7.230;2023-08-24T00:54:46;5.95;;;4.10;;
11496;SDS011;5805;51.542;7.230;2023-08-24T00:57:12;7.10;;;4.25;;
11496;SDS011;5805;51.542;7.230;2023-08-24T00:59:40;5.03;;;4.10;;
11496;SDS011;5805;51.542;7.230;2023-08-24T01:02:05;4.32;;;3.67;;
11496;SDS011;5805;51.542;7.230;2023-08-24T01:04:31;7.75;;;4.10;;
11496;SDS011;5805;51.542;7.230;2023-08-24T01:06:57;5.20;;;3.45;;
11496;SDS011;5805;51.542;7.230;2023-08-24T01:09:23;5.85;;;3.90;;
11496;SDS011;5805;51.542;7.230;2023-08-24T01:11:49;9.57;;;4.30;;
11496;SDS011;5805;51.542;7.230;2023-08-24T01:14:23;5.35;;;4.30;;
11496;SDS011;5805;51.542;7.230;2023-08-24T01:17:03;7.20;;;4.68;;
11496;SDS011;5805;51.542;7.230;2023-08-24T01:19:34;5.43;;;4.72;;
11496;SDS011;5805;51.542;7.230;2023-08-24T01:22:05;6.75;;;4.60;;
11496;SDS011;5805;51.542;7.230;2023-08-24T01:24:38;6.65;;;4.85;;
11496;SDS011;5805;51.542;7.230;2023-08-24T01:27:11;6.15;;;4.85;;
11496;SDS011;5805;51.542;7.230;2023-08-24T01:29:38;5.10;;;4.65;;
11496;SDS011;5805;51.542;7.230;2023-08-24T01:32:05;5.80;;;4.32;;
11496;SDS011;5805;51.542;7.230;2023-08-24T01:34:34;6.40;;;4.53;;
11496;SDS011;5805;51.542;7.230;2023-08-24T01:37:01;7.32;;;4.28;;
11496;SDS011;5805;51.542;7.230;2023-08-24T01:39:28;8.32;;;4.63;;
11496;SDS011;5805;51.542;7.230;2023-08-24T01:42:00;7.65;;;5.28;;
11496;SDS011;5805;51.542;7.230;2023-08-24T01:44:31;4.72;;;4.18;;
11496;SDS011;5805;51.542;7.230;2023-08-24T01:47:02;7.25;;;4.88;;
11496;SDS011;5805;51.542;7.230;2023-08-24T01:49:29;6.45;;;4.88;;
11496;SDS011;5805;51.542;7.230;2023-08-24T01:51:56;6.00;;;5.40;;
11496;SDS011;5805;51.542;7.230;2023-08-24T01:54:23;6.47;;;5.43;;
11496;SDS011;5805;51.542;7.230;2023-08-24T01:56:49;8.18;;;5.40;;
11496;SDS011;5805;51.542;7.230;2023-08-24T01:59:15;6.22;;;5.18;;
11496;SDS011;5805;51.542;7.230;2023-08-24T02:01:42;7.38;;;4.72;;
11496;SDS011;5805;51.542;7.230;2023-08-24T02:04:07;7.80;;;5.05;;
11496;SDS011;5805;51.542;7.230;2023-08-24T02:06:33;8.82;;;5.38;;
11496;SDS011;5805;51.542;7.230;2023-08-24T02:08:59;7.47;;;5.80;;
11496;SDS011;5805;51.542;7.230;2023-08-24T02:11:24;9.82;;;5.43;;
11496;SDS011;5805;51.542;7.230;2023-08-24T02:13:50;8.18;;;5.07;;
11496;SDS011;5805;51.542;7.230;2023-08-24T02:16:16;8.55;;;5.43;;
11496;SDS011;5805;51.542;7.230;2023-08-24T02:18:43;8.20;;;5.55;;
11496;SDS011;5805;51.542;7.230;2023-08-24T02:21:09;11.30;;;5.90;;
11496;SDS011;5805;51.542;7.230;2023-08-24T02:23:35;7.05;;;5.05;;
11496;SDS011;5805;51.542;7.230;2023-08-24T02:26:00;5.40;;;4.93;;
11496;SDS011;5805;51.542;7.230;2023-08-24T02:28:26;7.25;;;5.32;;
11496;SDS011;5805;51.542;7.230;2023-08-24T02:30:52;9.20;;;5.30;;
11496;SDS011;5805;51.542;7.230;2023-08-24T02:33:17;7.20;;;5.50;;
11496;SDS011;5805;51.542;7.230;2023-08-24T02:35:44;6.32;;;5.10;;
11496;SDS011;5805;51.542;7.230;2023-08-24T02:38:12;7.43;;;5.63;;
11496;SDS011;5805;51.542;7.230;2023-08-24T02:40:37;8.63;;;5.80;;
11496;SDS011;5805;51.542;7.230;2023-08-24T02:43:03;6.65;;;5.95;;
11496;SDS011;5805;51.542;7.230;2023-08-24T02:45:29;7.18;;;5.50;;
11496;SDS011;5805;51.542;7.230;2023-08-24T02:47:54;7.20;;;5.65;;
11496;SDS011;5805;51.542;7.230;2023-08-24T02:50:20;9.02;;;6.50;;
11496;SDS011;5805;51.542;7.230;2023-08-24T02:52:47;13.57;;;6.82;;
11496;SDS011;5805;51.542;7.230;2023-08-24T02:55:13;6.93;;;5.70;;
11496;SDS011;5805;51.542;7.230;2023-08-24T02:57:39;8.77;;;6.35;;
11496;SDS011;5805;51.542;7.230;2023-08-24T03:00:05;7.88;;;6.05;;
11496;SDS011;5805;51.542;7.230;2023-08-24T03:02:32;11.13;;;6.75;;
11496;SDS011;5805;51.542;7.230;2023-08-24T03:04:57;7.57;;;5.95;;
11496;SDS011;5805;51.542;7.230;2023-08-24T03:07:23;7.88;;;6.95;;
11496;SDS011;5805;51.542;7.230;2023-08-24T03:09:50;9.30;;;6.40;;
11496;SDS011;5805;51.542;7.230;2023-08-24T03:12:16;6.65;;;5.95;;
11496;SDS011;5805;51.542;7.230;2023-08-24T03:14:42;8.43;;;6.35;;
11496;SDS011;5805;51.542;7.230;2023-08-24T03:17:07;8.07;;;7.28;;
11496;SDS011;5805;51.542;7.230;2023-08-24T03:19:33;12.27;;;9.65;;
11496;SDS011;5805;51.542;7.230;2023-08-24T03:21:59;13.75;;;11.80;;
11496;SDS011;5805;51.542;7.230;2023-08-24T03:24:24;17.10;;;11.23;;
11496;SDS011;5805;51.542;7.230;2023-08-24T03:26:51;11.50;;;10.13;;
11496;SDS011;5805;51.542;7.230;2023-08-24T03:29:17;10.07;;;8.98;;
11496;SDS011;5805;51.542;7.230;2023-08-24T03:31:43;10.18;;;8.40;;
11496;SDS011;5805;51.542;7.230;2023-08-24T03:34:08;9.48;;;8.07;;
11496;SDS011;5805;51.542;7.230;2023-08-24T03:36:34;9.85;;;7.65;;
11496;SDS011;5805;51.542;7.230;2023-08-24T03:39:00;9.75;;;7.78;;
11496;SDS011;5805;51.542;7.230;2023-08-24T03:41:25;9.85;;;8.00;;
11496;SDS011;5805;51.542;7.230;2023-08-24T03:43:52;9.95;;;7.63;;
11496;SDS011;5805;51.542;7.230;2023-08-24T03:46:18;9.30;;;7.43;;
11496;SDS011;5805;51.542;7.230;2023-08-24T03:48:44;8.75;;;7.00;;
11496;SDS011;5805;51.542;7.230;2023-08-24T03:51:10;8.95;;;7.50;;
11496;SDS011;5805;51.542;7.230;2023-08-24T03:53:35;9.32;;;7.35;;
11496;SDS011;5805;51.542;7.230;2023-08-24T03:56:01;7.45;;;6.75;;
11496;SDS011;5805;51.542;7.230;2023-08-24T03:58:27;8.25;;;7.20;;
11496;SDS011;5805;51.542;7.230;2023-08-24T04:00:54;8.38;;;7.40;;
11496;SDS011;5805;51.542;7.230;2023-08-24T04:03:19;7.72;;;6.95;;
11496;SDS011;5805;51.542;7.230;2023-08-24T04:05:45;10.05;;;7.55;;
11496;SDS011;5805;51.542;7.230;2023-08-24T04:08:11;9.05;;;7.68;;
11496;SDS011;5805;51.542;7.230;2023-08-24T04:10:37;14.07;;;7.35;;
11496;SDS011;5805;51.542;7.230;2023-08-24T04:13:03;9.05;;;7.22;;
11496;SDS011;5805;51.542;7.230;2023-08-24T04:15:28;8.40;;;7.38;;
11496;SDS011;5805;51.542;7.230;2023-08-24T04:17:55;11.30;;;6.95;;
11496;SDS011;5805;51.542;7.230;2023-08-24T04:20:21;10.55;;;7.63;;
11496;SDS011;5805;51.542;7.230;2023-08-24T04:22:47;8.48;;;7.50;;
11496;SDS011;5805;51.542;7.230;2023-08-24T04:25:12;14.32;;;7.22;;
11496;SDS011;5805;51.542;7.230;2023-08-24T04:27:38;9.80;;;7.40;;
11496;SDS011;5805;51.542;7.230;2023-08-24T04:30:04;10.05;;;7.40;;
11496;SDS011;5805;51.542;7.230;2023-08-24T04:32:31;9.88;;;7.65;;
11496;SDS011;5805;51.542;7.230;2023-08-24T04:34:58;9.43;;;7.85;;
11496;SDS011;5805;51.542;7.230;2023-08-24T04:37:24;8.95;;;7.85;;
11496;SDS011;5805;51.542;7.230;2023-08-24T04:39:50;9.82;;;7.78;;
11496;SDS011;5805;51.542;7.230;2023-08-24T04:42:15;12.07;;;8.20;;
11496;SDS011;5805;51.542;7.230;2023-08-24T04:44:41;14.93;;;8.60;;
11496;SDS011;5805;51.542;7.230;2023-08-24T04:47:07;9.65;;;8.20;;
11496;SDS011;5805;51.542;7.230;2023-08-24T04:49:32;10.15;;;9.00;;
11496;SDS011;5805;51.542;7.230;2023-08-24T04:51:59;14.68;;;9.82;;
11496;SDS011;5805;51.542;7.230;2023-08-24T04:54:25;10.48;;;9.40;;
11496;SDS011;5805;51.542;7.230;2023-08-24T04:56:51;14.82;;;10.57;;
11496;SDS011;5805;51.542;7.230;2023-08-24T04:59:16;15.15;;;9.45;;
11496;SDS011;5805;51.542;7.230;2023-08-24T05:01:42;12.45;;;9.68;;
11496;SDS011;5805;51.542;7.230;2023-08-24T05:04:08;12.45;;;9.13;;
11496;SDS011;5805;51.542;7.230;2023-08-24T05:06:33;9.90;;;8.70;;
11496;SDS011;5805;51.542;7.230;2023-08-24T05:09:00;9.80;;;8.75;;
11496;SDS011;5805;51.542;7.230;2023-08-24T05:11:27;10.43;;;8.50;;
11496;SDS011;5805;51.542;7.230;2023-08-24T05:13:53;9.10;;;8.23;;
11496;SDS011;5805;51.542;7.230;2023-08-24T05:16:19;12.32;;;8.38;;
11496;SDS011;5805;51.542;7.230;2023-08-24T05:18:45;9.23;;;7.07;;
11496;SDS011;5805;51.542;7.230;2023-08-24T05:21:10;11.10;;;6.25;;
11496;SDS011;5805;51.542;7.230;2023-08-24T05:23:36;8.55;;;6.25;;
11496;SDS011;5805;51.542;7.230;2023-08-24T05:26:03;11.48;;;6.47;;
11496;SDS011;5805;51.542;7.230;2023-08-24T05:28:29;8.15;;;6.22;;
11496;SDS011;5805;51.542;7.230;2023-08-24T05:30:56;10.38;;;5.20;;
11496;SDS011;5805;51.542;7.230;2023-08-24T05:33:23;12.68;;;5.50;;
11496;SDS011;5805;51.542;7.230;2023-08-24T05:35:50;5.93;;;4.28;;
11496;SDS011;5805;51.542;7.230;2023-08-24T05:38:16;6.32;;;4.40;;
11496;SDS011;5805;51.542;7.230;2023-08-24T05:40:42;8.27;;;5.15;;
11496;SDS011;5805;51.542;7.230;2023-08-24T05:43:12;5.55;;;4.22;;
11496;SDS011;5805;51.542;7.230;2023-08-24T05:45:38;7.50;;;3.78;;
11496;SDS011;5805;51.542;7.230;2023-08-24T05:48:04;5.88;;;3.80;;
11496;SDS011;5805;51.542;7.230;2023-08-24T05:50:31;6.38;;;3.88;;
11496;SDS011;5805;51.542;7.230;2023-08-24T05:52:56;5.38;;;3.92;;
11496;SDS011;5805;51.542;7.230;2023-08-24T05:55:22;6.78;;;3.80;;
11496;SDS011;5805;51.542;7.230;2023-08-24T05:57:48;6.60;;;4.05;;
11496;SDS011;5805;51.542;7.230;2023-08-24T06:00:15;4.72;;;3.90;;
11496;SDS011;5805;51.542;7.230;2023-08-24T06:02:41;8.13;;;4.05;;
11496;SDS011;5805;51.542;7.230;2023-08-24T06:05:07;5.97;;;4.03;;
11496;SDS011;5805;51.542;7.230;2023-08-24T06:07:33;5.78;;;4.20;;
11496;SDS011;5805;51.542;7.230;2023-08-24T06:10:00;7.97;;;4.35;;
11496;SDS011;5805;51.542;7.230;2023-08-24T06:12:25;8.35;;;4.60;;
11496;SDS011;5805;51.542;7.230;2023-08-24T06:14:51;7.72;;;4.95;;
11496;SDS011;5805;51.542;7.230;2023-08-24T06:17:18;6.32;;;4.60;;
11496;SDS011;5805;51.542;7.230;2023-08-24T06:19:44;9.55;;;4.90;;
11496;SDS011;5805;51.542;7.230;2023-08-24T06:22:10;6.82;;;4.78;;
11496;SDS011;5805;51.542;7.230;2023-08-24T06:24:35;5.82;;;4.10;;
11496;SDS011;5805;51.542;7.230;2023-08-24T06:27:01;9.10;;;5.32;;
11496;SDS011;5805;51.542;7.230;2023-08-24T06:29:27;8.02;;;4.95;;
11496;SDS011;5805;51.542;7.230;2023-08-24T06:31:53;7.78;;;5.30;;
11496;SDS011;5805;51.542;7.230;2023-08-24T06:34:20;7.80;;;5.45;;
11496;SDS011;5805;51.542;7.230;2023-08-24T06:36:46;7.95;;;5.25;;
11496;SDS011;5805;51.542;7.230;2023-08-24T06:39:12;9.55;;;6.20;;
11496;SDS011;5805;51.542;7.230;2023-08-24T06:41:37;12.38;;;6.40;;
11496;SDS011;5805;51.542;7.230;2023-08-24T06:44:03;7.78;;;5.72;;
11496;SDS011;5805;51.542;7.230;2023-08-24T06:46:29;7.38;;;5.65;;
11496;SDS011;5805;51.542;7.230;2023-08-24T06:48:54;8.68;;;5.25;;
11496;SDS011;5805;51.542;7.230;2023-08-24T06:51:22;14.90;;;6.40;;
11496;SDS011;5805;51.542;7.230;2023-08-24T06:53:47;9.93;;;6.78;;
11496;SDS011;5805;51.542;7.230;2023-08-24T06:56:13;12.95;;;6.95;;
11496;SDS011;5805;51.542;7.230;2023-08-24T06:58:39;13.68;;;6.72;;
11496;SDS011;5805;51.542;7.230;2023-08-24T07:01:04;10.35;;;6.88;;
11496;SDS011;5805;51.542;7.230;2023-08-24T07:03:30;9.73;;;6.82;;
11496;SDS011;5805;51.542;7.230;2023-08-24T07:05:56;10.35;;;7.30;;
11496;SDS011;5805;51.542;7.230;2023-08-24T07:08:23;9.00;;;6.55;;
11496;SDS011;5805;51.542;7.230;2023-08-24T07:10:49;10.68;;;6.50;;
11496;SDS011;5805;51.542;7.230;2023-08-24T07:13:14;11.68;;;6.72;;
11496;SDS011;5805;51.542;7.230;2023-08-24T07:15:40;11.43;;;6.97;;
11496;SDS011;5805;51.542;7.230;2023-08-24T07:18:07;12.75;;;6.88;;
11496;SDS011;5805;51.542;7.230;2023-08-24T07:20:32;12.13;;;7.22;;
11496;SDS011;5805;51.542;7.230;2023-08-24T07:22:58;12.88;;;7.43;;
11496;SDS011;5805;51.542;7.230;2023-08-24T07:25:25;15.65;;;6.60;;
11496;SDS011;5805;51.542;7.230;2023-08-24T07:27:51;12.18;;;6.80;;
11496;SDS011;5805;51.542;7.230;2023-08-24T07:30:17;8.32;;;6.53;;
11496;SDS011;5805;51.542;7.230;2023-08-24T07:32:42;11.57;;;6.90;;
11496;SDS011;5805;51.542;7.230;2023-08-24T07:35:08;10.35;;;6.80;;
11496;SDS011;5805;51.542;7.230;2023-08-24T07:37:34;11.90;;;7.75;;
11496;SDS011;5805;51.542;7.230;2023-08-24T07:39:59;10.90;;;6.03;;
11496;SDS011;5805;51.542;7.230;2023-08-24T07:42:26;7.72;;;5.30;;
11496;SDS011;5805;51.542;7.230;2023-08-24T07:44:52;13.07;;;5.75;;
11496;SDS011;5805;51.542;7.230;2023-08-24T07:47:18;10.90;;;5.97;;
11496;SDS011;5805;51.542;7.230;2023-08-24T07:49:43;13.07;;;5.75;;
11496;SDS011;5805;51.542;7.230;2023-08-24T07:52:09;8.70;;;5.57;;
11496;SDS011;5805;51.542;7.230;2023-08-24T07:54:35;11.15;;;5.93;;
11496;SDS011;5805;51.542;7.230;2023-08-24T07:57:00;8.05;;;5.63;;
11496;SDS011;5805;51.542;7.230;2023-08-24T07:59:28;8.23;;;5.05;;
11496;SDS011;5805;51.542;7.230;2023-08-24T08:01:53;10.88;;;5.93;;
11496;SDS011;5805;51.542;7.230;2023-08-24T08:04:19;11.82;;;5.15;;
11496;SDS011;5805;51.542;7.230;2023-08-24T08:06:45;7.20;;;5.40;;
11496;SDS011;5805;51.542;7.230;2023-08-24T08:09:10;8.70;;;5.43;;
11496;SDS011;5805;51.542;7.230;2023-08-24T08:11:36;8.30;;;5.18;;
11496;SDS011;5805;51.542;7.230;2023-08-24T08:14:02;7.63;;;5.03;;
11496;SDS011;5805;51.542;7.230;2023-08-24T08:16:29;9.65;;;5.60;;
11496;SDS011;5805;51.542;7.230;2023-08-24T08:18:55;7.05;;;5.15;;
11496;SDS011;5805;51.542;7.230;2023-08-24T08:21:21;8.63;;;4.88;;
11496;SDS011;5805;51.542;7.230;2023-08-24T08:23:46;9.43;;;5.25;;
11496;SDS011;5805;51.542;7.230;2023-08-24T08:26:12;7.82;;;5.28;;
11496;SDS011;5805;51.542;7.230;2023-08-24T08:28:38;7.45;;;4.65;;
11496;SDS011;5805;51.542;7.230;2023-08-24T08:31:04;8.35;;;5.38;;
11496;SDS011;5805;51.542;7.230;2023-08-24T08:33:31;5.47;;;4.80;;
11496;SDS011;5805;51.542;7.230;2023-08-24T08:35:57;9.00;;;5.60;;
11496;SDS011;5805;51.542;7.230;2023-08-24T08:38:23;8.10;;;4.30;;
11496;SDS011;5805;51.542;7.230;2023-08-24T08:40:49;7.95;;;4.85;;
11496;SDS011;5805;51.542;7.230;2023-08-24T08:43:15;8.80;;;5.07;;
11496;SDS011;5805;51.542;7.230;2023-08-24T08:45:40;9.00;;;5.15;;
11496;SDS011;5805;51.542;7.230;2023-08-24T08:48:06;7.72;;;5.30;;
11496;SDS011;5805;51.542;7.230;2023-08-24T08:50:35;7.15;;;4.95;;
11496;SDS011;5805;51.542;7.230;2023-08-24T08:53:00;8.07;;;4.78;;
11496;SDS011;5805;51.542;7.230;2023-08-24T08:55:26;6.63;;;4.50;;
11496;SDS011;5805;51.542;7.230;2023-08-24T08:57:54;9.48;;;4.57;;
11496;SDS011;5805;51.542;7.230;2023-08-24T09:00:22;7.13;;;4.13;;
11496;SDS011;5805;51.542;7.230;2023-08-24T09:02:49;8.68;;;4.55;;
11496;SDS011;5805;51.542;7.230;2023-08-24T09:05:18;9.38;;;4.25;;
11496;SDS011;5805;51.542;7.230;2023-08-24T09:07:45;8.77;;;4.85;;
11496;SDS011;5805;51.542;7.230;2023-08-24T09:10:12;6.85;;;4.05;;
11496;SDS011;5805;51.542;7.230;2023-08-24T09:12:38;5.65;;;3.63;;
11496;SDS011;5805;51.542;7.230;2023-08-24T09:15:04;5.55;;;4.10;;
11496;SDS011;5805;51.542;7.230;2023-08-24T09:17:31;11.05;;;4.60;;
11496;SDS011;5805;51.542;7.230;2023-08-24T09:19:57;8.45;;;4.50;;
11496;SDS011;5805;51.542;7.230;2023-08-24T09:22:25;6.15;;;4.20;;
11496;SDS011;5805;51.542;7.230;2023-08-24T09:24:52;6.32;;;4.05;;
11496;SDS011;5805;51.542;7.230;2023-08-24T09:27:18;7.07;;;3.63;;
11496;SDS011;5805;51.542;7.230;2023-08-24T09:29:47;6.68;;;3.75;;
11496;SDS011;5805;51.542;7.230;2023-08-24T09:32:13;9.00;;;3.53;;
11496;SDS011;5805;51.542;7.230;2023-08-24T09:34:39;9.95;;;3.40;;
11496;SDS011;5805;51.542;7.230;2023-08-24T09:37:04;8.00;;;3.63;;
11496;SDS011;5805;51.542;7.230;2023-08-24T09:39:37;6.35;;;3.00;;
11496;SDS011;5805;51.542;7.230;2023-08-24T09:42:04;5.63;;;2.90;;
11496;SDS011;5805;51.542;7.230;2023-08-24T09:44:30;6.88;;;3.60;;
11496;SDS011;5805;51.542;7.230;2023-08-24T09:46:56;9.68;;;3.70;;
11496;SDS011;5805;51.542;7.230;2023-08-24T09:49:21;5.45;;;3.80;;
11496;SDS011;5805;51.542;7.230;2023-08-24T09:51:47;8.25;;;3.28;;
11496;SDS011;5805;51.542;7.230;2023-08-24T09:54:15;5.90;;;3.75;;
11496;SDS011;5805;51.542;7.230;2023-08-24T09:56:42;5.03;;;3.60;;
11496;SDS011;5805;51.542;7.230;2023-08-24T09:59:12;7.10;;;3.60;;
11496;SDS011;5805;51.542;7.230;2023-08-24T10:01:42;9.02;;;3.85;;
11496;SDS011;5805;51.542;7.230;2023-08-24T10:04:08;6.18;;;3.28;;
11496;SDS011;5805;51.542;7.230;2023-08-24T10:06:34;8.23;;;3.38;;
11496;SDS011;5805;51.542;7.230;2023-08-24T10:09:02;5.07;;;3.25;;
11496;SDS011;5805;51.542;7.230;2023-08-24T10:11:34;6.15;;;3.28;;
11496;SDS011;5805;51.542;7.230;2023-08-24T10:14:04;5.38;;;3.10;;
11496;SDS011;5805;51.542;7.230;2023-08-24T10:16:35;4.72;;;3.28;;
11496;SDS011;5805;51.542;7.230;2023-08-24T10:19:02;6.85;;;3.20;;
11496;SDS011;5805;51.542;7.230;2023-08-24T10:21:28;6.53;;;3.55;;
11496;SDS011;5805;51.542;7.230;2023-08-24T10:23:55;4.13;;;2.80;;
11496;SDS011;5805;51.542;7.230;2023-08-24T10:26:22;4.65;;;2.65;;
11496;SDS011;5805;51.542;7.230;2023-08-24T10:28:48;6.97;;;3.10;;
11496;SDS011;5805;51.542;7.230;2023-08-24T10:31:15;5.63;;;2.60;;
11496;SDS011;5805;51.542;7.230;2023-08-24T10:33:42;7.20;;;3.08;;
11496;SDS011;5805;51.542;7.230;2023-08-24T10:36:10;5.05;;;2.97;;
11496;SDS011;5805;51.542;7.230;2023-08-24T10:38:40;6.28;;;2.63;;
11496;SDS011;5805;51.542;7.230;2023-08-24T10:41:06;5.00;;;2.60;;
11496;SDS011;5805;51.542;7.230;2023-08-24T10:43:34;6.03;;;3.05;;
11496;SDS011;5805;51.542;7.230;2023-08-24T10:46:00;6.80;;;3.10;;
11496;SDS011;5805;51.542;7.230;2023-08-24T10:48:27;10.82;;;3.28;;
11496;SDS011;5805;51.542;7.230;2023-08-24T10:53:47;6.40;;;2.85;;
11496;SDS011;5805;51.542;7.230;2023-08-24T10:56:17;4.60;;;2.90;;
11496;SDS011;5805;51.542;7.230;2023-08-24T10:58:43;6.53;;;2.67;;
11496;SDS011;5805;51.542;7.230;2023-08-24T11:01:14;6.18;;;2.92;;
11496;SDS011;5805;51.542;7.230;2023-08-24T11:03:40;5.53;;;3.00;;
11496;SDS011;5805;51.542;7.230;2023-08-24T11:06:17;4.93;;;2.72;;
11496;SDS011;5805;51.542;7.230;2023-08-24T11:08:45;7.90;;;2.70;;
11496;SDS011;5805;51.542;7.230;2023-08-24T11:11:17;4.10;;;2.88;;
11496;SDS011;5805;51.542;7.230;2023-08-24T11:13:51;3.33;;;2.63;;
11496;SDS011;5805;51.542;7.230;2023-08-24T11:16:41;2.70;;;2.33;;
11496;SDS011;5805;51.542;7.230;2023-08-24T11:19:07;4.63;;;2.70;;
11496;SDS011;5805;51.542;7.230;2023-08-24T11:21:36;6.50;;;3.20;;
11496;SDS011;5805;51.542;7.230;2023-08-24T11:24:03;5.13;;;2.90;;
11496;SDS011;5805;51.542;7.230;2023-08-24T11:26:30;4.80;;;2.90;;
11496;SDS011;5805;51.542;7.230;2023-08-24T11:28:56;6.97;;;2.88;;
11496;SDS011;5805;51.542;7.230;2023-08-24T11:31:22;3.45;;;2.28;;
11496;SDS011;5805;51.542;7.230;2023-08-24T11:33:47;3.88;;;2.60;;
11496;SDS011;5805;51.542;7.230;2023-08-24T11:36:13;4.25;;;2.25;;
11496;SDS011;5805;51.542;7.230;2023-08-24T11:38:41;4.00;;;2.33;;
11496;SDS011;5805;51.542;7.230;2023-08-24T11:41:11;5.00;;;2.30;;
11496;SDS011;5805;51.542;7.230;2023-08-24T11:43:37;5.32;;;2.67;;
11496;SDS011;5805;51.542;7.230;2023-08-24T11:46:02;5.22;;;2.45;;
11496;SDS011;5805;51.542;7.230;2023-08-24T11:48:30;3.20;;;2.30;;
11496;SDS011;5805;51.542;7.230;2023-08-24T11:50:56;3.00;;;2.20;;
11496;SDS011;5805;51.542;7.230;2023-08-24T11:53:23;3.90;;;2.22;;
11496;SDS011;5805;51.542;7.230;2023-08-24T11:55:51;5.07;;;2.30;;
11496;SDS011;5805;51.542;7.230;2023-08-24T11:58:17;4.63;;;2.20;;
11496;SDS011;5805;51.542;7.230;2023-08-24T12:00:43;4.18;;;2.28;;
11496;SDS011;5805;51.542;7.230;2023-08-24T12:03:09;3.25;;;2.40;;
11496;SDS011;5805;51.542;7.230;2023-08-24T12:05:36;4.85;;;2.10;;
11496;SDS011;5805;51.542;7.230;2023-08-24T12:08:01;4.25;;;2.40;;
11496;SDS011;5805;51.542;7.230;2023-08-24T12:10:28;4.53;;;2.33;;
11496;SDS011;5805;51.542;7.230;2023-08-24T12:13:01;4.45;;;2.10;;
11496;SDS011;5805;51.542;7.230;2023-08-24T12:15:28;3.63;;;2.20;;
11496;SDS011;5805;51.542;7.230;2023-08-24T12:17:54;4.47;;;2.30;;
11496;SDS011;5805;51.542;7.230;2023-08-24T12:20:20;3.42;;;2.38;;
11496;SDS011;5805;51.542;7.230;2023-08-24T12:22:50;3.30;;;2.35;;
11496;SDS011;5805;51.542;7.230;2023-08-24T12:25:16;3.85;;;2.10;;
11496;SDS011;5805;51.542;7.230;2023-08-24T12:27:42;3.03;;;2.17;;
11496;SDS011;5805;51.542;7.230;2023-08-24T12:30:09;2.92;;;2.00;;
11496;SDS011;5805;51.542;7.230;2023-08-24T12:32:42;5.72;;;2.25;;
11496;SDS011;5805;51.542;7.230;2023-08-24T12:35:08;4.45;;;2.30;;
11496;SDS011;5805;51.542;7.230;2023-08-24T12:37:34;6.63;;;2.78;;
11496;SDS011;5805;51.542;7.230;2023-08-24T12:40:00;4.03;;;2.50;;
11496;SDS011;5805;51.542;7.230;2023-08-24T12:42:26;6.78;;;2.17;;
11496;SDS011;5805;51.542;7.230;2023-08-24T12:44:51;5.00;;;2.28;;
11496;SDS011;5805;51.542;7.230;2023-08-24T12:47:19;4.38;;;2.08;;
11496;SDS011;5805;51.542;7.230;2023-08-24T12:49:46;3.25;;;2.30;;
11496;SDS011;5805;51.542;7.230;2023-08-24T12:52:12;3.63;;;2.30;;
11496;SDS011;5805;51.542;7.230;2023-08-24T12:54:37;5.88;;;2.45;;
11496;SDS011;5805;51.542;7.230;2023-08-24T12:57:03;5.50;;;2.42;;
11496;SDS011;5805;51.542;7.230;2023-08-24T12:59:29;5.00;;;2.47;;
11496;SDS011;5805;51.542;7.230;2023-08-24T13:01:55;7.97;;;2.58;;
11496;SDS011;5805;51.542;7.230;2023-08-24T13:04:22;9.00;;;2.88;;
11496;SDS011;5805;51.542;7.230;2023-08-24T13:06:48;8.10;;;2.42;;
11496;SDS011;5805;51.542;7.230;2023-08-24T13:09:13;5.60;;;2.53;;
11496;SDS011;5805;51.542;7.230;2023-08-24T13:11:39;5.28;;;2.70;;
11496;SDS011;5805;51.542;7.230;2023-08-24T13:14:05;3.80;;;2.53;;
11496;SDS011;5805;51.542;7.230;2023-08-24T13:16:30;5.78;;;2.60;;
11496;SDS011;5805;51.542;7.230;2023-08-24T13:18:56;8.27;;;2.47;;
11496;SDS011;5805;51.542;7.230;2023-08-24T13:21:24;6.38;;;2.40;;
11496;SDS011;5805;51.542;7.230;2023-08-24T13:23:50;4.47;;;2.58;;
11496;SDS011;5805;51.542;7.230;2023-08-24T13:26:18;6.18;;;3.13;;
11496;SDS011;5805;51.542;7.230;2023-08-24T13:28:44;4.75;;;2.63;;
11496;SDS011;5805;51.542;7.230;2023-08-24T13:31:10;5.38;;;2.92;;
11496;SDS011;5805;51.542;7.230;2023-08-24T13:33:36;4.65;;;2.42;;
11496;SDS011;5805;51.542;7.230;2023-08-24T13:36:02;5.40;;;2.72;;
11496;SDS011;5805;51.542;7.230;2023-08-24T13:38:29;6.65;;;2.95;;
11496;SDS011;5805;51.542;7.230;2023-08-24T13:40:55;5.53;;;2.70;;
11496;SDS011;5805;51.542;7.230;2023-08-24T13:43:21;5.45;;;2.72;;
11496;SDS011;5805;51.542;7.230;2023-08-24T13:45:46;6.15;;;2.88;;
11496;SDS011;5805;51.542;7.230;2023-08-24T13:48:12;7.28;;;2.70;;
11496;SDS011;5805;51.542;7.230;2023-08-24T13:50:38;5.55;;;3.00;;
11496;SDS011;5805;51.542;7.230;2023-08-24T13:53:03;6.10;;;3.00;;
11496;SDS011;5805;51.542;7.230;2023-08-24T13:55:30;4.28;;;3.03;;
11496;SDS011;5805;51.542;7.230;2023-08-24T13:57:56;6.53;;;2.78;;
11496;SDS011;5805;51.542;7.230;2023-08-24T14:00:22;3.97;;;2.97;;
11496;SDS011;5805;51.542;7.230;2023-08-24T14:02:48;7.15;;;2.65;;
11496;SDS011;5805;51.542;7.230;2023-08-24T14:05:14;4.18;;;2.70;;
11496;SDS011;5805;51.542;7.230;2023-08-24T14:07:39;6.18;;;2.70;;
11496;SDS011;5805;51.542;7.230;2023-08-24T14:10:06;6.25;;;2.97;;
11496;SDS011;5805;51.542;7.230;2023-08-24T14:12:33;4.25;;;2.47;;
11496;SDS011;5805;51.542;7.230;2023-08-24T14:14:59;4.47;;;2.67;;
11496;SDS011;5805;51.542;7.230;2023-08-24T14:17:25;4.65;;;2.80;;
11496;SDS011;5805;51.542;7.230;2023-08-24T14:19:51;5.75;;;3.33;;
11496;SDS011;5805;51.542;7.230;2023-08-24T14:22:17;4.63;;;3.13;;
11496;SDS011;5805;51.542;7.230;2023-08-24T14:24:42;5.05;;;2.83;;
11496;SDS011;5805;51.542;7.230;2023-08-24T14:27:08;7.72;;;3.20;;
11496;SDS011;5805;51.542;7.230;2023-08-24T14:29:35;6.55;;;2.85;;
11496;SDS011;5805;51.542;7.230;2023-08-24T14:32:01;4.85;;;3.13;;
11496;SDS011;5805;51.542;7.230;2023-08-24T14:34:26;5.40;;;2.75;;
11496;SDS011;5805;51.542;7.230;2023-08-24T14:36:52;5.13;;;3.00;;
11496;SDS011;5805;51.542;7.230;2023-08-24T14:39:19;5.03;;;2.38;;
11496;SDS011;5805;51.542;7.230;2023-08-24T14:41:44;4.55;;;2.72;;
11496;SDS011;5805;51.542;7.230;2023-08-24T14:44:10;7.68;;;2.97;;
11496;SDS011;5805;51.542;7.230;2023-08-24T14:46:37;9.30;;;2.80;;
11496;SDS011;5805;51.542;7.230;2023-08-24T14:49:03;8.10;;;2.88;;
11496;SDS011;5805;51.542;7.230;2023-08-24T14:51:28;3.67;;;2.50;;
11496;SDS011;5805;51.542;7.230;2023-08-24T14:53:54;7.93;;;3.20;;
11496;SDS011;5805;51.542;7.230;2023-08-24T14:56:20;5.32;;;2.70;;
11496;SDS011;5805;51.542;7.230;2023-08-24T14:58:46;5.38;;;3.08;;